createdAt,value
2023-12-19T00:01:57.229Z,1.60
2023-12-19T00:04:27.456Z,1.30
2023-12-19T00:06:58.061Z,1.27
2023-12-19T00:09:29.014Z,1.40
2023-12-19T00:12:07.553Z,1.13
2023-12-19T00:14:41.328Z,1.40
2023-12-19T00:17:12.923Z,1.23
2023-12-19T00:19:47.565Z,1.42
2023-12-19T00:22:17.568Z,1.40
2023-12-19T00:24:47.497Z,1.30
2023-12-19T00:27:21.867Z,0.90
2023-12-19T00:30:21.662Z,1.00
2023-12-19T00:33:10.343Z,1.17
2023-12-19T00:36:00.781Z,1.20
2023-12-19T00:38:34.797Z,1.40
2023-12-19T00:41:06.842Z,1.30
2023-12-19T00:43:37.289Z,1.63
2023-12-19T00:46:07.546Z,1.25
2023-12-19T00:48:38.289Z,1.42
2023-12-19T00:51:13.079Z,1.10
2023-12-19T00:53:45.856Z,1.63
2023-12-19T00:56:16.607Z,1.10
2023-12-19T00:58:47.267Z,1.75
2023-12-19T01:01:25.377Z,1.10
2023-12-19T01:03:55.511Z,1.35
2023-12-19T01:06:26.238Z,1.38
2023-12-19T01:08:57.152Z,1.40
2023-12-19T01:11:27.648Z,1.38
2023-12-19T01:13:58.393Z,1.63
2023-12-19T01:16:29.628Z,1.40
2023-12-19T01:19:01.082Z,1.52
2023-12-19T01:21:32.616Z,1.20
2023-12-19T01:24:02.909Z,1.55
2023-12-19T01:26:35.882Z,1.20
2023-12-19T01:29:06.061Z,1.30
2023-12-19T01:31:38.825Z,1.33
2023-12-19T01:34:10.023Z,1.17
2023-12-19T01:36:56.774Z,1.17
2023-12-19T01:39:28.635Z,1.20
2023-12-19T01:42:00.794Z,1.38
2023-12-19T01:44:30.906Z,1.63
2023-12-19T01:47:04.091Z,1.27
2023-12-19T01:49:35.066Z,1.40
2023-12-19T01:52:06.616Z,1.40
2023-12-19T01:54:38.807Z,1.55
2023-12-19T01:57:09.446Z,1.20
2023-12-19T01:59:40.142Z,1.25
2023-12-19T02:02:11.104Z,1.40
2023-12-19T02:04:42.371Z,1.88
2023-12-19T02:07:12.699Z,1.40
2023-12-19T02:09:44.044Z,1.30
2023-12-19T02:12:15.315Z,1.40
2023-12-19T02:14:51.021Z,1.88
2023-12-19T02:17:22.113Z,1.45
2023-12-19T02:19:56.104Z,1.60
2023-12-19T02:22:27.606Z,2.33
2023-12-19T02:26:19.070Z,1.60
2023-12-19T02:33:34.011Z,1.70
2023-12-19T02:36:47.877Z,1.45
2023-12-19T03:08:20.183Z,1.65
2023-12-19T03:10:50.600Z,1.75
2023-12-19T03:13:20.683Z,1.80
2023-12-19T03:15:51.785Z,1.90
2023-12-19T03:18:27.510Z,1.63
2023-12-19T03:21:00.022Z,1.58
2023-12-19T03:23:31.780Z,1.63
2023-12-19T03:26:02.022Z,1.85
2023-12-19T03:28:31.821Z,1.70
2023-12-19T03:31:03.319Z,2.00
2023-12-19T03:33:34.643Z,1.80
2023-12-19T03:36:05.014Z,1.75
2023-12-19T03:38:35.145Z,1.90
2023-12-19T03:41:06.710Z,2.00
2023-12-19T03:43:37.296Z,1.65
2023-12-19T03:46:10.718Z,2.10
2023-12-19T03:48:41.381Z,2.45
2023-12-19T03:51:13.899Z,2.65
2023-12-19T03:53:44.661Z,2.00
2023-12-19T03:56:15.271Z,1.77
2023-12-19T03:58:45.749Z,2.40
2023-12-19T04:01:17.302Z,2.00
2023-12-19T04:03:48.234Z,2.30
2023-12-19T04:06:18.531Z,2.08
2023-12-19T04:08:48.425Z,2.00
2023-12-19T04:11:21.883Z,1.80
2023-12-19T04:13:52.491Z,2.03
2023-12-19T04:16:23.178Z,2.00
2023-12-19T04:18:53.932Z,2.10
2023-12-19T04:21:24.255Z,2.17
2023-12-19T04:23:56.156Z,2.08
2023-12-19T04:26:26.384Z,1.88
2023-12-19T04:28:57.141Z,2.28
2023-12-19T04:31:28.100Z,2.00
2023-12-19T04:33:59.674Z,2.22
2023-12-19T04:36:30.829Z,2.65
2023-12-19T04:39:01.508Z,2.85
2023-12-19T04:41:31.353Z,2.65
2023-12-19T04:44:01.239Z,2.80
2023-12-19T04:46:32.045Z,2.35
2023-12-19T04:49:02.341Z,2.65
2023-12-19T04:51:32.271Z,2.58
2023-12-19T04:54:03.421Z,2.22
2023-12-19T04:56:34.835Z,2.42
2023-12-19T04:59:05.358Z,2.25
2023-12-19T05:01:36.193Z,2.17
2023-12-19T05:04:06.521Z,1.98
2023-12-19T05:06:38.179Z,2.30
2023-12-19T05:09:10.479Z,2.20
2023-12-19T05:14:11.252Z,2.83
2023-12-19T05:16:41.128Z,1.88
2023-12-19T05:19:12.141Z,2.33
2023-12-19T05:21:42.462Z,2.35
2023-12-19T05:24:12.659Z,1.92
2023-12-19T05:26:42.457Z,2.55
2023-12-19T05:29:12.248Z,2.30
2023-12-19T05:31:42.074Z,1.90
2023-12-19T05:34:12.493Z,2.17
2023-12-19T05:36:49.577Z,2.30
2023-12-19T05:39:21.885Z,2.10
2023-12-19T05:41:54.262Z,2.45
2023-12-19T05:46:55.162Z,1.67
2023-12-19T05:49:25.207Z,1.63
2023-12-19T05:51:56.223Z,2.05
2023-12-19T05:54:27.195Z,1.98
2023-12-19T05:56:58.385Z,1.70
2023-12-19T05:59:29.856Z,2.10
2023-12-19T06:02:00.472Z,2.15
2023-12-19T06:04:30.989Z,1.85
2023-12-19T06:07:02.181Z,2.00
2023-12-19T06:09:34.826Z,2.03
2023-12-19T06:12:06.221Z,2.20
2023-12-19T06:14:40.571Z,2.30
2023-12-19T06:17:12.114Z,2.05
2023-12-19T06:19:42.097Z,2.15
2023-12-19T06:22:12.523Z,2.40
2023-12-19T06:24:43.234Z,2.38
2023-12-19T06:27:18.143Z,2.95
2023-12-19T06:29:49.327Z,2.58
2023-12-19T06:32:19.865Z,3.28
2023-12-19T06:34:50.560Z,2.58
2023-12-19T06:37:20.675Z,2.92
2023-12-19T06:39:50.526Z,2.65
2023-12-19T06:42:21.660Z,2.53
2023-12-19T06:44:52.197Z,2.65
2023-12-19T06:47:22.685Z,2.25
2023-12-19T06:49:52.743Z,2.90
2023-12-19T06:52:23.265Z,2.95
2023-12-19T06:54:53.231Z,2.90
2023-12-19T06:57:23.866Z,3.10
2023-12-19T06:59:55.360Z,2.40
2023-12-19T07:02:26.621Z,2.92
2023-12-19T07:04:56.900Z,2.90
2023-12-19T07:07:26.716Z,3.08
2023-12-19T07:09:57.750Z,3.47
2023-12-19T07:12:27.864Z,3.83
2023-12-19T07:14:58.224Z,3.33
2023-12-19T07:17:28.549Z,3.70
2023-12-19T07:19:59.352Z,3.70
2023-12-19T07:22:30.568Z,4.60
2023-12-19T07:25:01.509Z,5.30
2023-12-19T07:27:37.074Z,4.90
2023-12-19T07:30:09.216Z,5.53
2023-12-19T07:32:41.633Z,3.50
2023-12-19T07:35:16.132Z,5.10
2023-12-19T07:37:46.300Z,4.63
2023-12-19T07:40:16.921Z,4.20
2023-12-19T07:42:48.101Z,4.30
2023-12-19T07:45:20.844Z,4.88
2023-12-19T07:47:50.810Z,5.22
2023-12-19T07:50:21.050Z,4.05
2023-12-19T07:52:53.101Z,2.85
2023-12-19T07:55:24.782Z,3.63
2023-12-19T07:57:56.782Z,5.03
2023-12-19T08:02:58.191Z,4.10
2023-12-19T08:05:29.573Z,3.42
2023-12-19T08:07:59.979Z,5.65
2023-12-19T08:10:31.079Z,5.20
2023-12-19T08:13:01.500Z,4.80
2023-12-19T08:15:31.639Z,3.95
2023-12-19T08:18:02.233Z,5.32
2023-12-19T08:20:32.575Z,6.25
2023-12-19T08:23:03.040Z,8.00
2023-12-19T08:25:33.456Z,8.02
2023-12-19T08:28:07.390Z,7.47
2023-12-19T08:30:38.076Z,8.60
2023-12-19T08:33:09.696Z,7.47
2023-12-19T08:35:41.183Z,8.98
2023-12-19T08:38:12.149Z,7.60
2023-12-19T08:40:43.614Z,7.95
2023-12-19T08:43:15.096Z,8.98
2023-12-19T08:45:46.283Z,9.10
2023-12-19T08:48:16.399Z,7.82
2023-12-19T08:50:47.664Z,8.20
2023-12-19T08:53:17.661Z,7.65
2023-12-19T08:55:49.646Z,7.45
2023-12-19T08:58:20.659Z,8.95
2023-12-19T09:00:54.940Z,8.20
2023-12-19T09:03:25.839Z,8.20
2023-12-19T09:05:56.917Z,7.45
2023-12-19T09:08:27.820Z,7.25
2023-12-19T09:10:57.656Z,7.40
2023-12-19T09:13:27.563Z,7.25
2023-12-19T09:16:00.326Z,6.85
2023-12-19T09:18:31.623Z,6.07
2023-12-19T09:21:03.111Z,4.95
2023-12-19T09:23:33.599Z,4.97
2023-12-19T09:26:04.435Z,4.65
2023-12-19T09:28:35.961Z,4.28
2023-12-19T09:31:09.916Z,4.15
2023-12-19T09:33:42.082Z,4.28
2023-12-19T09:36:12.538Z,4.00
2023-12-19T09:38:46.058Z,3.90
2023-12-19T09:41:16.685Z,3.55
2023-12-19T09:43:47.220Z,2.55
2023-12-19T09:46:18.550Z,1.77
2023-12-19T09:48:52.973Z,1.75
2023-12-19T09:51:32.596Z,1.70
2023-12-19T09:54:04.969Z,1.50
2023-12-19T09:56:35.138Z,2.75
2023-12-19T09:59:08.024Z,1.98
2023-12-19T10:01:40.560Z,2.10
2023-12-19T10:04:16.806Z,2.28
2023-12-19T10:07:03.179Z,2.22
2023-12-19T10:09:34.009Z,2.03
2023-12-19T10:12:15.905Z,2.08
2023-12-19T10:14:49.145Z,2.03
2023-12-19T10:17:20.532Z,2.00
2023-12-19T10:19:52.362Z,1.92
2023-12-19T10:22:24.456Z,1.98
2023-12-19T10:25:02.901Z,1.63
2023-12-19T10:27:33.993Z,1.73
2023-12-19T10:30:20.699Z,1.90
2023-12-19T10:32:59.414Z,2.33
2023-12-19T10:35:41.556Z,2.20
2023-12-19T10:38:11.877Z,1.60
2023-12-19T10:40:43.142Z,2.10
2023-12-19T10:43:14.369Z,1.80
2023-12-19T10:45:47.020Z,1.50
2023-12-19T10:48:17.355Z,1.48
2023-12-19T10:50:49.266Z,2.65
2023-12-19T10:55:58.422Z,1.90
2023-12-19T10:58:29.269Z,1.40
2023-12-19T11:01:01.683Z,1.50
2023-12-19T11:03:50.560Z,1.23
2023-12-19T11:06:24.675Z,1.25
2023-12-19T11:08:59.118Z,1.20
2023-12-19T11:11:38.994Z,1.35
2023-12-19T11:14:09.633Z,1.40
2023-12-19T11:16:52.674Z,1.45
2023-12-19T11:19:36.172Z,1.35
2023-12-19T11:22:29.245Z,1.25
2023-12-19T11:25:30.285Z,1.10
2023-12-19T11:28:08.752Z,1.45
2023-12-19T11:30:42.356Z,1.50
2023-12-19T11:33:17.921Z,1.30
2023-12-19T11:35:48.689Z,1.42
2023-12-19T11:38:27.950Z,1.50
2023-12-19T11:41:00.676Z,1.30
2023-12-19T11:43:34.314Z,1.42
2023-12-19T11:46:13.689Z,1.30
2023-12-19T11:48:49.672Z,1.33
2023-12-19T11:51:57.514Z,1.40
2023-12-19T11:54:31.741Z,1.85
2023-12-19T11:57:04.183Z,1.05
2023-12-19T11:59:51.649Z,1.30
2023-12-19T12:02:35.101Z,1.40
2023-12-19T12:05:21.791Z,1.27
2023-12-19T12:07:54.707Z,1.60
2023-12-19T12:10:27.697Z,1.60
2023-12-19T12:13:01.998Z,1.65
2023-12-19T12:15:36.113Z,1.70
2023-12-19T12:18:08.835Z,2.10
2023-12-19T12:20:40.778Z,2.33
2023-12-19T12:23:10.860Z,2.30
2023-12-19T12:25:41.190Z,2.58
2023-12-19T12:28:14.369Z,3.20
2023-12-19T12:30:45.136Z,2.55
2023-12-19T12:33:18.412Z,2.70
2023-12-19T12:36:19.113Z,2.10
2023-12-19T12:38:50.387Z,2.28
2023-12-19T12:41:36.645Z,2.30
2023-12-19T12:44:28.787Z,2.40
2023-12-19T12:47:01.629Z,6.15
2023-12-19T12:49:35.202Z,3.50
2023-12-19T12:52:15.786Z,4.00
2023-12-19T12:54:45.835Z,3.53
2023-12-19T12:57:22.560Z,2.72
2023-12-19T13:00:26.193Z,2.80
2023-12-19T13:02:58.695Z,2.72
2023-12-19T13:05:28.715Z,3.05
2023-12-19T13:07:58.991Z,3.40
2023-12-19T13:10:38.404Z,2.72
2023-12-19T13:13:09.923Z,2.95
2023-12-19T13:15:40.950Z,2.75
2023-12-19T13:18:12.740Z,2.65
2023-12-19T13:20:43.791Z,2.67
2023-12-19T13:23:13.954Z,2.10
2023-12-19T13:25:44.749Z,2.70
2023-12-19T13:28:16.187Z,2.70
2023-12-19T13:30:47.824Z,2.95
2023-12-19T13:33:18.276Z,2.60
2023-12-19T13:35:49.013Z,2.78
2023-12-19T13:38:22.690Z,3.00
2023-12-19T13:40:55.498Z,2.58
2023-12-19T13:43:27.973Z,2.50
2023-12-19T13:45:58.196Z,2.25
2023-12-19T13:48:28.671Z,2.70
2023-12-19T13:50:59.207Z,2.30
2023-12-19T13:53:31.267Z,2.83
2023-12-19T13:56:03.155Z,2.35
2023-12-19T13:58:34.238Z,2.30
2023-12-19T14:01:05.979Z,2.53
2023-12-19T14:03:37.454Z,2.30
2023-12-19T14:06:11.552Z,2.72
2023-12-19T14:08:50.448Z,2.50
2023-12-19T14:11:21.023Z,2.33
2023-12-19T14:13:52.357Z,2.42
2023-12-19T14:16:23.513Z,2.42
2023-12-19T14:19:21.706Z,2.95
2023-12-19T14:22:09.234Z,2.08
2023-12-19T14:24:42.892Z,2.10
2023-12-19T14:27:14.587Z,2.38
2023-12-19T14:29:48.096Z,2.38
2023-12-19T14:32:19.282Z,2.35
2023-12-19T14:34:51.743Z,2.38
2023-12-19T14:37:22.315Z,2.40
2023-12-19T14:40:40.371Z,2.22
2023-12-19T14:43:10.507Z,2.13
2023-12-19T14:45:42.268Z,2.55
2023-12-19T14:48:12.436Z,3.03
2023-12-19T14:50:42.438Z,1.80
2023-12-19T14:53:12.393Z,2.38
2023-12-19T14:55:42.291Z,2.10
2023-12-19T14:58:14.168Z,2.13
2023-12-19T15:00:45.354Z,2.22
2023-12-19T15:03:15.605Z,1.90
2023-12-19T15:05:45.869Z,2.13
2023-12-19T15:08:18.139Z,1.95
2023-12-19T15:10:48.770Z,2.40
2023-12-19T15:13:29.043Z,2.40
2023-12-19T15:16:01.080Z,2.40
2023-12-19T15:18:36.788Z,2.45
2023-12-19T15:21:10.391Z,2.17
2023-12-19T15:23:40.623Z,2.22
2023-12-19T15:26:10.514Z,2.30
2023-12-19T15:28:40.869Z,2.22
2023-12-19T15:31:11.140Z,2.10
2023-12-19T15:33:41.543Z,2.13
2023-12-19T15:36:23.183Z,1.90
2023-12-19T15:38:53.138Z,2.10
2023-12-19T15:41:26.120Z,2.63
2023-12-19T15:44:04.755Z,2.10
2023-12-19T15:46:43.144Z,2.78
2023-12-19T15:49:15.401Z,2.08
2023-12-19T15:52:00.749Z,1.90
2023-12-19T15:54:35.584Z,2.10
2023-12-19T15:59:50.513Z,2.65
2023-12-19T16:02:21.318Z,2.20
2023-12-19T16:05:17.845Z,1.90
2023-12-19T16:12:04.172Z,2.05
2023-12-19T16:14:35.444Z,3.22
2023-12-19T16:17:10.818Z,2.25
2023-12-19T16:19:47.408Z,1.90
2023-12-19T16:22:17.559Z,2.05
2023-12-19T16:24:49.989Z,2.00
2023-12-19T16:27:33.934Z,2.30
2023-12-19T16:30:08.913Z,2.08
2023-12-19T16:32:42.663Z,2.13
2023-12-19T16:35:12.945Z,2.22
2023-12-19T16:41:04.241Z,2.40
2023-12-19T16:43:35.406Z,2.10
2023-12-19T16:46:15.553Z,2.25
2023-12-19T16:52:43.613Z,1.88
2023-12-19T16:55:15.270Z,2.20
2023-12-19T16:57:45.235Z,1.75
2023-12-19T17:00:16.890Z,1.80
2023-12-19T17:02:47.621Z,2.00
2023-12-19T17:05:40.204Z,1.90
2023-12-19T17:11:34.903Z,2.40
2023-12-19T17:14:06.146Z,1.95
2023-12-19T17:16:39.410Z,1.90
2023-12-19T17:19:12.171Z,2.22
2023-12-19T17:21:42.835Z,1.70
2023-12-19T17:24:14.945Z,1.88
2023-12-19T17:26:45.207Z,1.83
2023-12-19T17:29:17.902Z,1.77
2023-12-19T17:31:48.783Z,1.70
2023-12-19T17:34:19.017Z,1.90
2023-12-19T17:36:49.060Z,1.77
2023-12-19T17:39:18.869Z,1.52
2023-12-19T17:41:49.161Z,1.73
2023-12-19T17:44:18.976Z,1.90
2023-12-19T17:46:49.550Z,1.77
2023-12-19T17:49:19.471Z,2.53
2023-12-19T17:51:50.148Z,2.00
2023-12-19T17:54:20.146Z,1.95
2023-12-19T17:56:52.515Z,1.98
2023-12-19T17:59:22.588Z,2.35
2023-12-19T18:01:52.765Z,2.28
2023-12-19T18:04:23.178Z,1.92
2023-12-19T18:06:53.148Z,2.22
2023-12-19T18:09:24.483Z,2.42
2023-12-19T18:11:56.983Z,1.70
2023-12-19T18:14:29.714Z,1.70
2023-12-19T18:17:05.232Z,1.90
2023-12-19T18:19:35.346Z,1.95
2023-12-19T18:22:05.374Z,1.60
2023-12-19T18:24:36.247Z,1.70
2023-12-19T18:27:08.927Z,1.73
2023-12-19T18:29:39.192Z,1.52
2023-12-19T18:32:09.664Z,1.88
2023-12-19T18:34:39.570Z,1.63
2023-12-19T18:37:09.563Z,1.60
2023-12-19T18:39:39.476Z,1.50
2023-12-19T18:42:09.819Z,1.45
2023-12-19T18:44:43.185Z,1.50
2023-12-19T18:47:14.533Z,1.50
2023-12-19T18:49:45.498Z,1.42
2023-12-19T18:52:17.060Z,1.38
2023-12-19T18:54:48.326Z,1.98
2023-12-19T18:57:19.316Z,1.27
2023-12-19T18:59:50.911Z,1.50
2023-12-19T19:04:51.090Z,1.13
2023-12-19T19:07:21.786Z,1.58
2023-12-19T19:09:53.327Z,1.50
2023-12-19T19:12:24.243Z,1.58
2023-12-19T19:14:55.691Z,1.58
2023-12-19T19:17:26.736Z,1.60
2023-12-19T19:20:03.254Z,1.52
2023-12-19T19:22:35.288Z,1.13
2023-12-19T19:25:06.052Z,1.60
2023-12-19T19:27:36.292Z,1.70
2023-12-19T19:30:06.729Z,1.55
2023-12-19T19:32:37.043Z,1.60
2023-12-19T19:35:07.326Z,1.38
2023-12-19T19:37:38.652Z,1.50
2023-12-19T19:42:43.767Z,1.50
2023-12-19T19:45:19.235Z,1.55
2023-12-19T19:47:49.255Z,1.55
2023-12-19T19:50:19.842Z,1.60
2023-12-19T19:52:50.188Z,1.80
2023-12-19T19:55:23.492Z,1.60
2023-12-19T19:57:54.918Z,1.70
2023-12-19T20:00:24.877Z,1.80
2023-12-19T20:02:55.798Z,1.58
2023-12-19T20:05:26.172Z,1.55
2023-12-19T20:07:57.670Z,1.55
2023-12-19T20:10:27.837Z,1.50
2023-12-19T20:13:00.685Z,1.50
2023-12-19T20:15:31.302Z,1.60
2023-12-19T20:18:01.975Z,1.80
2023-12-19T20:20:32.941Z,1.80
2023-12-19T20:23:03.182Z,1.10
2023-12-19T20:25:34.390Z,1.45
2023-12-19T20:28:05.416Z,1.30
2023-12-19T20:30:37.918Z,1.10
2023-12-19T20:33:08.619Z,1.20
2023-12-19T20:35:40.120Z,1.10
2023-12-19T20:38:11.843Z,1.08
2023-12-19T20:40:42.249Z,1.20
2023-12-19T20:43:13.038Z,0.90
2023-12-19T20:45:43.892Z,1.48
2023-12-19T20:48:16.732Z,0.98
2023-12-19T20:50:47.124Z,1.00
2023-12-19T20:53:17.076Z,1.02
2023-12-19T20:55:48.917Z,1.10
2023-12-19T20:58:19.582Z,1.20
2023-12-19T21:01:02.411Z,1.23
2023-12-19T21:03:38.864Z,1.45
2023-12-19T21:06:11.202Z,1.70
2023-12-19T21:08:43.578Z,1.75
2023-12-19T21:11:13.618Z,1.25
2023-12-19T21:13:43.939Z,1.30
2023-12-19T21:16:15.987Z,1.52
2023-12-19T21:18:47.954Z,1.75
2023-12-19T21:21:18.061Z,1.63
2023-12-19T21:23:48.069Z,1.15
2023-12-19T21:26:21.654Z,1.10
2023-12-19T21:28:53.587Z,1.58
2023-12-19T21:31:24.968Z,1.40
2023-12-19T21:33:55.536Z,1.63
2023-12-19T21:36:26.200Z,1.30
2023-12-19T21:39:00.986Z,1.55
2023-12-19T21:41:33.164Z,1.50
2023-12-19T21:44:03.813Z,1.73
2023-12-19T21:46:37.162Z,1.52
2023-12-19T21:49:08.072Z,1.30
2023-12-19T21:51:38.841Z,1.60
2023-12-19T21:54:12.736Z,1.88
2023-12-19T21:56:44.822Z,1.98
2023-12-19T22:01:47.812Z,1.65
2023-12-19T22:04:18.379Z,1.33
2023-12-19T22:06:49.380Z,2.00
2023-12-19T22:09:19.855Z,1.35
2023-12-19T22:11:51.845Z,1.45
2023-12-19T22:14:22.080Z,1.52
2023-12-19T22:16:53.679Z,1.83
2023-12-19T22:21:53.505Z,1.70
2023-12-19T22:24:24.409Z,1.88
2023-12-19T22:26:55.202Z,1.90
2023-12-19T22:29:26.519Z,1.80
2023-12-19T22:31:56.964Z,1.83
2023-12-19T22:34:26.897Z,1.67
2023-12-19T22:36:58.145Z,2.30
2023-12-19T22:39:28.404Z,1.80
2023-12-19T22:42:02.064Z,1.88
2023-12-19T22:44:33.177Z,2.63
2023-12-19T22:47:03.964Z,1.85
2023-12-19T22:49:36.694Z,1.88
2023-12-19T22:52:07.735Z,1.80
2023-12-19T22:54:37.822Z,1.90
2023-12-19T22:57:08.311Z,1.63
2023-12-19T22:59:38.842Z,1.65
2023-12-19T23:02:09.779Z,2.20
2023-12-19T23:04:43.382Z,1.58
2023-12-19T23:07:14.173Z,1.77
2023-12-19T23:09:48.693Z,1.70
2023-12-19T23:12:18.892Z,2.20
2023-12-19T23:14:50.899Z,2.58
2023-12-19T23:17:23.135Z,1.83
2023-12-19T23:19:56.426Z,1.90
2023-12-19T23:22:27.166Z,1.73
2023-12-19T23:24:58.153Z,1.90
2023-12-19T23:27:28.606Z,1.73
2023-12-19T23:29:59.506Z,2.50
2023-12-19T23:32:30.327Z,1.80
2023-12-19T23:35:01.495Z,2.00
2023-12-19T23:37:31.980Z,2.13
2023-12-19T23:40:03.391Z,1.92
2023-12-19T23:42:34.204Z,1.65
2023-12-19T23:45:05.762Z,1.77
2023-12-19T23:47:37.934Z,1.67
2023-12-19T23:50:09.447Z,2.10
2023-12-19T23:52:40.610Z,1.88
2023-12-19T23:55:11.164Z,1.90
2023-12-19T23:57:43.432Z,2.13
